バクー の空港の天気 - METARとTAF

ヘイダル・アリエフ国際空港(バクー) ( UBBB / BAK ) - アゼルバイジャン バクー
飛行場実況気象(Metar)
観測時間02/18 03:00 AZT (02/17 23:00 UTC)
風向・風速南南東 3m/s
視程10km以上
天気現象
全天の4割程度の雲 雲底高度 300m
全天の8割程度の雲 雲底高度 670m
気温5℃
湿度93%
気圧1012hPa
METARUBBB 172300Z 16006KT 9999 SCT010 BKN022 05/04 Q1012 R16/190068 R17/190065 NOSIG
過去の天気等 Google飛行場航空写真 Wunderground天気予報

過去48時間のMETAR

飛行場予報(TAF)
発表時間: 2/17 21:05 AZT (2/17 17:05 UTC)
予報対象時間: 17日22時 AZT ~ 18日22時 AZT
風向・風速南南西 5m/s
視程10km以上
全天の4割程度の雲 雲底高度 370m
全天の8割程度の雲 雲底高度 910m
全天の8割程度の雲 雲底高度 3050m
18日0時 AZT ~ 18日8時 AZT に一時的に
風向・風速南 3m/s
視程3000m
天気現象もや
全天の8割程度の雲 雲底高度 150m
18日8時 AZT ~ 18日10時 AZT に徐々に
風向・風速南南西 8m/s
TAF UBBB 171705Z 1718/1818 20010KT 9999 SCT012 BKN030 BKN100 TX06/1811Z TN02/1803Z
TEMPO 1720/1804 18006KT 3000 BR BKN005
BECMG 1804/1806 21016KT